sensor_id;sensor_type;location;lat;lon;timestamp;temperature;humidity
25718;DHT22;13574;52.040;5.692;2023-04-25T00:01:05;11.90;99.90
25718;DHT22;13574;52.040;5.692;2023-04-25T00:03:32;11.90;99.90
25718;DHT22;13574;52.040;5.692;2023-04-25T00:05:58;12.00;99.90
25718;DHT22;13574;52.040;5.692;2023-04-25T00:08:29;12.00;99.90
25718;DHT22;13574;52.040;5.692;2023-04-25T00:10:56;11.90;99.90
25718;DHT22;13574;52.040;5.692;2023-04-25T00:13:22;11.80;99.90
25718;DHT22;13574;52.040;5.692;2023-04-25T00:15:47;11.90;99.90
25718;DHT22;13574;52.040;5.692;2023-04-25T00:18:14;11.90;99.90
25718;DHT22;13574;52.040;5.692;2023-04-25T00:20:40;11.90;99.90
25718;DHT22;13574;52.040;5.692;2023-04-25T00:23:05;11.90;99.90
25718;DHT22;13574;52.040;5.692;2023-04-25T00:25:31;11.80;99.90
25718;DHT22;13574;52.040;5.692;2023-04-25T00:27:57;11.70;99.90
25718;DHT22;13574;52.040;5.692;2023-04-25T00:30:22;11.80;99.90
25718;DHT22;13574;52.040;5.692;2023-04-25T00:32:48;11.80;99.90
25718;DHT22;13574;52.040;5.692;2023-04-25T00:35:14;11.60;99.90
25718;DHT22;13574;52.040;5.692;2023-04-25T00:37:40;11.80;99.90
25718;DHT22;13574;52.040;5.692;2023-04-25T00:40:06;11.80;99.90
25718;DHT22;13574;52.040;5.692;2023-04-25T00:42:34;11.80;99.90
25718;DHT22;13574;52.040;5.692;2023-04-25T00:45:01;11.70;99.90
25718;DHT22;13574;52.040;5.692;2023-04-25T00:47:28;11.80;99.90
25718;DHT22;13574;52.040;5.692;2023-04-25T00:49:54;11.60;99.90
25718;DHT22;13574;52.040;5.692;2023-04-25T00:52:20;11.60;99.90
25718;DHT22;13574;52.040;5.692;2023-04-25T00:54:45;11.50;99.90
25718;DHT22;13574;52.040;5.692;2023-04-25T00:57:11;11.50;99.90
25718;DHT22;13574;52.040;5.692;2023-04-25T00:59:38;11.60;99.90
25718;DHT22;13574;52.040;5.692;2023-04-25T01:02:04;11.50;99.90
25718;DHT22;13574;52.040;5.692;2023-04-25T01:04:30;11.50;99.90
25718;DHT22;13574;52.040;5.692;2023-04-25T01:06:56;11.50;99.90
25718;DHT22;13574;52.040;5.692;2023-04-25T01:09:23;11.30;99.90
25718;DHT22;13574;52.040;5.692;2023-04-25T01:11:49;11.40;99.90
25718;DHT22;13574;52.040;5.692;2023-04-25T01:14:15;11.50;99.90
25718;DHT22;13574;52.040;5.692;2023-04-25T01:16:41;11.40;99.90
25718;DHT22;13574;52.040;5.692;2023-04-25T01:19:10;11.40;99.90
25718;DHT22;13574;52.040;5.692;2023-04-25T01:21:38;11.50;99.90
25718;DHT22;13574;52.040;5.692;2023-04-25T01:24:05;11.40;99.90
25718;DHT22;13574;52.040;5.692;2023-04-25T01:26:31;11.50;99.90
25718;DHT22;13574;52.040;5.692;2023-04-25T01:28:58;11.60;99.90
25718;DHT22;13574;52.040;5.692;2023-04-25T01:31:24;11.70;99.90
25718;DHT22;13574;52.040;5.692;2023-04-25T01:33:50;11.70;99.90
25718;DHT22;13574;52.040;5.692;2023-04-25T01:36:17;11.80;99.90
25718;DHT22;13574;52.040;5.692;2023-04-25T01:38:43;11.70;99.90
25718;DHT22;13574;52.040;5.692;2023-04-25T01:41:10;11.80;99.90
25718;DHT22;13574;52.040;5.692;2023-04-25T01:43:35;11.70;99.90
25718;DHT22;13574;52.040;5.692;2023-04-25T01:46:01;11.70;99.90
25718;DHT22;13574;52.040;5.692;2023-04-25T01:48:27;11.70;99.90
25718;DHT22;13574;52.040;5.692;2023-04-25T01:50:52;11.70;99.90
25718;DHT22;13574;52.040;5.692;2023-04-25T01:53:18;11.70;99.90
25718;DHT22;13574;52.040;5.692;2023-04-25T01:55:44;11.70;99.90
25718;DHT22;13574;52.040;5.692;2023-04-25T01:58:09;11.70;99.90
25718;DHT22;13574;52.040;5.692;2023-04-25T02:00:38;11.70;99.90
25718;DHT22;13574;52.040;5.692;2023-04-25T02:03:05;11.60;99.90
25718;DHT22;13574;52.040;5.692;2023-04-25T02:05:35;11.60;99.90
25718;DHT22;13574;52.040;5.692;2023-04-25T02:08:02;11.60;99.90
25718;DHT22;13574;52.040;5.692;2023-04-25T02:10:27;11.70;99.90
25718;DHT22;13574;52.040;5.692;2023-04-25T02:12:53;11.50;99.90
25718;DHT22;13574;52.040;5.692;2023-04-25T02:15:19;11.70;99.90
25718;DHT22;13574;52.040;5.692;2023-04-25T02:17:44;11.80;99.90
25718;DHT22;13574;52.040;5.692;2023-04-25T02:20:11;11.70;99.90
25718;DHT22;13574;52.040;5.692;2023-04-25T02:22:36;11.70;99.90
25718;DHT22;13574;52.040;5.692;2023-04-25T02:25:02;11.70;99.90
25718;DHT22;13574;52.040;5.692;2023-04-25T02:27:30;11.60;99.90
25718;DHT22;13574;52.040;5.692;2023-04-25T02:29:56;11.60;99.90
25718;DHT22;13574;52.040;5.692;2023-04-25T02:32:21;11.50;99.90
25718;DHT22;13574;52.040;5.692;2023-04-25T02:34:47;11.50;99.90
25718;DHT22;13574;52.040;5.692;2023-04-25T02:37:13;11.40;99.90
25718;DHT22;13574;52.040;5.692;2023-04-25T02:39:39;11.30;99.90
25718;DHT22;13574;52.040;5.692;2023-04-25T02:42:05;11.30;99.90
25718;DHT22;13574;52.040;5.692;2023-04-25T02:44:30;11.30;99.90
25718;DHT22;13574;52.040;5.692;2023-04-25T02:46:56;11.40;99.90
25718;DHT22;13574;52.040;5.692;2023-04-25T02:49:21;11.30;99.90
25718;DHT22;13574;52.040;5.692;2023-04-25T02:51:47;11.40;99.90
25718;DHT22;13574;52.040;5.692;2023-04-25T02:54:13;11.30;99.90
25718;DHT22;13574;52.040;5.692;2023-04-25T02:56:38;11.30;99.90
25718;DHT22;13574;52.040;5.692;2023-04-25T02:59:04;11.30;99.90
25718;DHT22;13574;52.040;5.692;2023-04-25T03:01:30;11.20;99.90
25718;DHT22;13574;52.040;5.692;2023-04-25T03:03:55;11.20;99.90
25718;DHT22;13574;52.040;5.692;2023-04-25T03:06:21;11.30;99.90
25718;DHT22;13574;52.040;5.692;2023-04-25T03:08:47;11.20;99.90
25718;DHT22;13574;52.040;5.692;2023-04-25T03:11:12;11.20;99.90
25718;DHT22;13574;52.040;5.692;2023-04-25T03:13:38;11.10;99.90
25718;DHT22;13574;52.040;5.692;2023-04-25T03:16:04;11.10;99.90
25718;DHT22;13574;52.040;5.692;2023-04-25T03:18:29;11.00;99.90
25718;DHT22;13574;52.040;5.692;2023-04-25T03:20:55;11.00;99.90
25718;DHT22;13574;52.040;5.692;2023-04-25T03:23:21;11.10;99.90
25718;DHT22;13574;52.040;5.692;2023-04-25T03:25:46;11.10;99.90
25718;DHT22;13574;52.040;5.692;2023-04-25T03:28:13;11.10;99.90
25718;DHT22;13574;52.040;5.692;2023-04-25T03:30:38;11.20;99.90
25718;DHT22;13574;52.040;5.692;2023-04-25T03:33:04;11.10;99.90
25718;DHT22;13574;52.040;5.692;2023-04-25T03:35:30;11.20;99.90
25718;DHT22;13574;52.040;5.692;2023-04-25T03:37:55;11.20;99.90
25718;DHT22;13574;52.040;5.692;2023-04-25T03:40:21;11.20;99.90
25718;DHT22;13574;52.040;5.692;2023-04-25T03:42:47;11.20;99.90
25718;DHT22;13574;52.040;5.692;2023-04-25T03:45:12;11.00;99.90
25718;DHT22;13574;52.040;5.692;2023-04-25T03:47:38;11.00;99.90
25718;DHT22;13574;52.040;5.692;2023-04-25T03:50:04;10.90;99.90
25718;DHT22;13574;52.040;5.692;2023-04-25T03:52:30;10.90;99.90
25718;DHT22;13574;52.040;5.692;2023-04-25T03:54:55;11.00;99.90
25718;DHT22;13574;52.040;5.692;2023-04-25T03:57:21;11.10;99.90
25718;DHT22;13574;52.040;5.692;2023-04-25T03:59:47;11.00;99.90
25718;DHT22;13574;52.040;5.692;2023-04-25T04:02:12;11.10;99.90
25718;DHT22;13574;52.040;5.692;2023-04-25T04:04:38;11.00;99.90
25718;DHT22;13574;52.040;5.692;2023-04-25T04:07:04;10.90;99.90
25718;DHT22;13574;52.040;5.692;2023-04-25T04:09:29;10.70;99.90
25718;DHT22;13574;52.040;5.692;2023-04-25T04:11:55;10.70;99.90
25718;DHT22;13574;52.040;5.692;2023-04-25T04:14:20;10.60;99.90
25718;DHT22;13574;52.040;5.692;2023-04-25T04:16:46;10.60;99.90
25718;DHT22;13574;52.040;5.692;2023-04-25T04:19:12;10.70;99.90
25718;DHT22;13574;52.040;5.692;2023-04-25T04:21:37;10.70;99.90
25718;DHT22;13574;52.040;5.692;2023-04-25T04:24:03;10.80;99.90
25718;DHT22;13574;52.040;5.692;2023-04-25T04:26:29;10.70;99.90
25718;DHT22;13574;52.040;5.692;2023-04-25T04:28:57;10.80;99.90
25718;DHT22;13574;52.040;5.692;2023-04-25T04:31:24;10.80;99.90
25718;DHT22;13574;52.040;5.692;2023-04-25T04:33:50;10.90;99.90
25718;DHT22;13574;52.040;5.692;2023-04-25T04:36:16;10.80;99.90
25718;DHT22;13574;52.040;5.692;2023-04-25T04:38:45;10.80;99.90
25718;DHT22;13574;52.040;5.692;2023-04-25T04:41:11;10.90;99.90
25718;DHT22;13574;52.040;5.692;2023-04-25T04:43:36;10.90;99.90
25718;DHT22;13574;52.040;5.692;2023-04-25T04:46:02;10.90;99.90
25718;DHT22;13574;52.040;5.692;2023-04-25T04:48:30;11.00;99.90
25718;DHT22;13574;52.040;5.692;2023-04-25T04:50:58;11.00;99.90
25718;DHT22;13574;52.040;5.692;2023-04-25T04:53:24;11.10;99.90
25718;DHT22;13574;52.040;5.692;2023-04-25T04:55:49;11.00;99.90
25718;DHT22;13574;52.040;5.692;2023-04-25T04:58:15;11.00;99.90
25718;DHT22;13574;52.040;5.692;2023-04-25T05:00:41;11.10;99.90
25718;DHT22;13574;52.040;5.692;2023-04-25T05:03:06;11.10;99.90
25718;DHT22;13574;52.040;5.692;2023-04-25T05:05:32;11.20;99.90
25718;DHT22;13574;52.040;5.692;2023-04-25T05:07:58;11.30;99.90
25718;DHT22;13574;52.040;5.692;2023-04-25T05:10:24;11.30;99.90
25718;DHT22;13574;52.040;5.692;2023-04-25T05:12:49;11.40;99.90
25718;DHT22;13574;52.040;5.692;2023-04-25T05:15:15;11.50;99.90
25718;DHT22;13574;52.040;5.692;2023-04-25T05:17:43;11.60;99.90
25718;DHT22;13574;52.040;5.692;2023-04-25T05:20:09;11.50;99.90
25718;DHT22;13574;52.040;5.692;2023-04-25T05:22:35;11.60;99.90
25718;DHT22;13574;52.040;5.692;2023-04-25T05:25:01;11.70;99.90
25718;DHT22;13574;52.040;5.692;2023-04-25T05:27:27;11.80;99.90
25718;DHT22;13574;52.040;5.692;2023-04-25T05:29:53;11.90;99.90
25718;DHT22;13574;52.040;5.692;2023-04-25T05:32:18;12.00;99.90
25718;DHT22;13574;52.040;5.692;2023-04-25T05:34:44;12.20;99.90
25718;DHT22;13574;52.040;5.692;2023-04-25T05:37:09;12.20;99.90
25718;DHT22;13574;52.040;5.692;2023-04-25T05:39:35;12.30;99.90
25718;DHT22;13574;52.040;5.692;2023-04-25T05:42:01;12.30;99.90
25718;DHT22;13574;52.040;5.692;2023-04-25T05:44:28;12.40;99.90
25718;DHT22;13574;52.040;5.692;2023-04-25T05:46:53;12.50;99.90
25718;DHT22;13574;52.040;5.692;2023-04-25T05:49:20;12.30;99.90
25718;DHT22;13574;52.040;5.692;2023-04-25T05:51:46;12.40;99.90
25718;DHT22;13574;52.040;5.692;2023-04-25T05:54:11;12.50;99.90
25718;DHT22;13574;52.040;5.692;2023-04-25T05:56:37;12.80;99.90
25718;DHT22;13574;52.040;5.692;2023-04-25T05:59:02;12.80;99.90
25718;DHT22;13574;52.040;5.692;2023-04-25T06:01:28;12.90;99.90
25718;DHT22;13574;52.040;5.692;2023-04-25T06:03:54;13.00;99.90
25718;DHT22;13574;52.040;5.692;2023-04-25T06:06:19;13.10;99.90
25718;DHT22;13574;52.040;5.692;2023-04-25T06:08:45;13.30;99.90
25718;DHT22;13574;52.040;5.692;2023-04-25T06:11:11;13.60;99.90
25718;DHT22;13574;52.040;5.692;2023-04-25T06:13:37;13.50;99.90
25718;DHT22;13574;52.040;5.692;2023-04-25T06:16:02;13.60;99.90
25718;DHT22;13574;52.040;5.692;2023-04-25T06:18:28;13.70;99.90
25718;DHT22;13574;52.040;5.692;2023-04-25T06:20:54;13.70;99.90
25718;DHT22;13574;52.040;5.692;2023-04-25T06:23:19;13.90;99.90
25718;DHT22;13574;52.040;5.692;2023-04-25T06:25:45;13.80;99.90
25718;DHT22;13574;52.040;5.692;2023-04-25T06:28:11;13.90;99.90
25718;DHT22;13574;52.040;5.692;2023-04-25T06:30:37;13.90;99.90
25718;DHT22;13574;52.040;5.692;2023-04-25T06:33:03;14.00;99.90
25718;DHT22;13574;52.040;5.692;2023-04-25T06:35:28;14.00;99.90
25718;DHT22;13574;52.040;5.692;2023-04-25T06:37:54;14.00;99.90
25718;DHT22;13574;52.040;5.692;2023-04-25T06:40:20;13.70;99.90
25718;DHT22;13574;52.040;5.692;2023-04-25T06:42:45;13.40;99.90
25718;DHT22;13574;52.040;5.692;2023-04-25T06:45:11;13.50;99.90
25718;DHT22;13574;52.040;5.692;2023-04-25T06:47:37;13.20;99.90
25718;DHT22;13574;52.040;5.692;2023-04-25T06:50:02;13.60;99.90
25718;DHT22;13574;52.040;5.692;2023-04-25T06:52:28;13.90;99.90
25718;DHT22;13574;52.040;5.692;2023-04-25T06:54:54;14.10;99.90
25718;DHT22;13574;52.040;5.692;2023-04-25T06:57:19;14.50;99.90
25718;DHT22;13574;52.040;5.692;2023-04-25T06:59:45;14.40;99.90
25718;DHT22;13574;52.040;5.692;2023-04-25T07:02:11;15.20;99.90
25718;DHT22;13574;52.040;5.692;2023-04-25T07:04:37;15.50;99.70
25718;DHT22;13574;52.040;5.692;2023-04-25T07:07:02;16.00;98.80
25718;DHT22;13574;52.040;5.692;2023-04-25T07:09:29;16.30;98.20
25718;DHT22;13574;52.040;5.692;2023-04-25T07:11:55;15.90;97.50
25718;DHT22;13574;52.040;5.692;2023-04-25T07:14:21;15.90;97.40
25718;DHT22;13574;52.040;5.692;2023-04-25T07:16:47;15.40;97.80
25718;DHT22;13574;52.040;5.692;2023-04-25T07:19:13;15.60;98.20
25718;DHT22;13574;52.040;5.692;2023-04-25T07:21:38;16.30;97.20
25718;DHT22;13574;52.040;5.692;2023-04-25T07:24:04;16.40;96.70
25718;DHT22;13574;52.040;5.692;2023-04-25T07:26:30;16.10;96.60
25718;DHT22;13574;52.040;5.692;2023-04-25T07:28:56;15.60;96.10
25718;DHT22;13574;52.040;5.692;2023-04-25T07:31:22;15.10;96.70
25718;DHT22;13574;52.040;5.692;2023-04-25T07:33:48;14.20;97.90
25718;DHT22;13574;52.040;5.692;2023-04-25T07:36:13;13.50;98.70
25718;DHT22;13574;52.040;5.692;2023-04-25T07:38:40;13.90;99.40
25718;DHT22;13574;52.040;5.692;2023-04-25T07:41:06;14.20;98.60
25718;DHT22;13574;52.040;5.692;2023-04-25T07:43:32;14.90;98.90
25718;DHT22;13574;52.040;5.692;2023-04-25T07:45:58;15.70;98.60
25718;DHT22;13574;52.040;5.692;2023-04-25T07:48:23;16.00;97.30
25718;DHT22;13574;52.040;5.692;2023-04-25T07:50:49;15.60;97.00
25718;DHT22;13574;52.040;5.692;2023-04-25T07:53:15;15.20;97.80
25718;DHT22;13574;52.040;5.692;2023-04-25T07:55:41;17.50;96.60
25718;DHT22;13574;52.040;5.692;2023-04-25T07:58:07;19.70;93.30
25718;DHT22;13574;52.040;5.692;2023-04-25T08:00:33;21.70;91.30
25718;DHT22;13574;52.040;5.692;2023-04-25T08:02:59;24.40;86.90
25718;DHT22;13574;52.040;5.692;2023-04-25T08:05:24;22.40;82.30
25718;DHT22;13574;52.040;5.692;2023-04-25T08:07:50;22.70;82.60
25718;DHT22;13574;52.040;5.692;2023-04-25T08:10:17;22.90;84.00
25718;DHT22;13574;52.040;5.692;2023-04-25T08:12:43;24.10;84.00
25718;DHT22;13574;52.040;5.692;2023-04-25T08:15:09;25.90;78.20
25718;DHT22;13574;52.040;5.692;2023-04-25T08:17:35;24.60;75.40
25718;DHT22;13574;52.040;5.692;2023-04-25T08:20:01;25.00;76.50
25718;DHT22;13574;52.040;5.692;2023-04-25T08:22:29;24.20;77.20
25718;DHT22;13574;52.040;5.692;2023-04-25T08:24:55;23.60;78.90
25718;DHT22;13574;52.040;5.692;2023-04-25T08:27:20;22.80;78.40
25718;DHT22;13574;52.040;5.692;2023-04-25T08:29:46;22.90;80.90
25718;DHT22;13574;52.040;5.692;2023-04-25T08:32:12;23.20;78.60
25718;DHT22;13574;52.040;5.692;2023-04-25T08:34:37;21.80;77.20
25718;DHT22;13574;52.040;5.692;2023-04-25T08:37:07;20.80;79.50
25718;DHT22;13574;52.040;5.692;2023-04-25T08:39:33;19.20;85.80
25718;DHT22;13574;52.040;5.692;2023-04-25T08:42:00;18.30;84.80
25718;DHT22;13574;52.040;5.692;2023-04-25T08:44:26;16.90;88.20
25718;DHT22;13574;52.040;5.692;2023-04-25T08:46:52;16.50;90.10
25718;DHT22;13574;52.040;5.692;2023-04-25T08:49:19;15.80;90.90
25718;DHT22;13574;52.040;5.692;2023-04-25T08:51:46;14.40;93.50
25718;DHT22;13574;52.040;5.692;2023-04-25T08:54:13;13.80;94.30
25718;DHT22;13574;52.040;5.692;2023-04-25T08:56:47;13.50;95.30
25718;DHT22;13574;52.040;5.692;2023-04-25T08:59:13;13.50;94.40
25718;DHT22;13574;52.040;5.692;2023-04-25T09:01:39;14.00;94.20
25718;DHT22;13574;52.040;5.692;2023-04-25T09:04:05;14.50;94.80
25718;DHT22;13574;52.040;5.692;2023-04-25T09:06:32;14.80;93.10
25718;DHT22;13574;52.040;5.692;2023-04-25T09:09:04;15.00;93.40
25718;DHT22;13574;52.040;5.692;2023-04-25T09:11:31;15.20;93.10
25718;DHT22;13574;52.040;5.692;2023-04-25T09:14:16;15.70;92.10
25718;DHT22;13574;52.040;5.692;2023-04-25T09:16:58;15.70;91.10
25718;DHT22;13574;52.040;5.692;2023-04-25T09:19:32;15.80;91.80
25718;DHT22;13574;52.040;5.692;2023-04-25T09:22:00;15.90;91.40
25718;DHT22;13574;52.040;5.692;2023-04-25T09:24:38;15.80;92.30
25718;DHT22;13574;52.040;5.692;2023-04-25T09:27:10;15.40;93.00
25718;DHT22;13574;52.040;5.692;2023-04-25T09:29:38;15.40;93.60
25718;DHT22;13574;52.040;5.692;2023-04-25T09:32:19;15.50;93.50
25718;DHT22;13574;52.040;5.692;2023-04-25T09:34:50;15.70;93.40
25718;DHT22;13574;52.040;5.692;2023-04-25T09:37:26;15.70;93.30
25718;DHT22;13574;52.040;5.692;2023-04-25T09:39:58;15.10;92.90
25718;DHT22;13574;52.040;5.692;2023-04-25T09:42:30;14.00;91.90
25718;DHT22;13574;52.040;5.692;2023-04-25T09:44:58;13.40;92.50
25718;DHT22;13574;52.040;5.692;2023-04-25T09:47:25;14.00;93.50
25718;DHT22;13574;52.040;5.692;2023-04-25T09:49:52;14.70;93.70
25718;DHT22;13574;52.040;5.692;2023-04-25T09:52:23;14.40;93.10
25718;DHT22;13574;52.040;5.692;2023-04-25T09:54:49;14.50;92.70
25718;DHT22;13574;52.040;5.692;2023-04-25T09:57:24;14.00;92.70
25718;DHT22;13574;52.040;5.692;2023-04-25T09:59:54;13.30;93.00
25718;DHT22;13574;52.040;5.692;2023-04-25T10:02:22;13.50;93.60
25718;DHT22;13574;52.040;5.692;2023-04-25T10:04:52;14.20;93.20
25718;DHT22;13574;52.040;5.692;2023-04-25T10:07:20;14.70;93.20
25718;DHT22;13574;52.040;5.692;2023-04-25T10:09:49;15.70;90.90
25718;DHT22;13574;52.040;5.692;2023-04-25T10:12:18;15.70;90.50
25718;DHT22;13574;52.040;5.692;2023-04-25T10:14:44;15.90;88.90
25718;DHT22;13574;52.040;5.692;2023-04-25T10:17:11;14.50;91.30
25718;DHT22;13574;52.040;5.692;2023-04-25T10:19:37;14.10;92.60
25718;DHT22;13574;52.040;5.692;2023-04-25T10:22:10;13.90;93.60
25718;DHT22;13574;52.040;5.692;2023-04-25T10:24:38;13.10;94.10
25718;DHT22;13574;52.040;5.692;2023-04-25T10:27:05;13.00;94.60
25718;DHT22;13574;52.040;5.692;2023-04-25T10:29:31;13.70;95.40
25718;DHT22;13574;52.040;5.692;2023-04-25T10:31:57;13.70;94.00
25718;DHT22;13574;52.040;5.692;2023-04-25T10:34:44;13.40;93.60
25718;DHT22;13574;52.040;5.692;2023-04-25T10:37:14;12.90;93.60
25718;DHT22;13574;52.040;5.692;2023-04-25T10:39:41;12.90;93.00
25718;DHT22;13574;52.040;5.692;2023-04-25T10:42:07;12.90;94.80
25718;DHT22;13574;52.040;5.692;2023-04-25T10:44:33;13.20;93.60
25718;DHT22;13574;52.040;5.692;2023-04-25T10:47:00;13.80;93.20
25718;DHT22;13574;52.040;5.692;2023-04-25T10:49:42;13.80;93.80
25718;DHT22;13574;52.040;5.692;2023-04-25T10:52:18;14.10;92.80
25718;DHT22;13574;52.040;5.692;2023-04-25T10:54:57;14.70;92.00
25718;DHT22;13574;52.040;5.692;2023-04-25T10:57:41;14.80;90.40
25718;DHT22;13574;52.040;5.692;2023-04-25T11:02:53;13.90;91.20
25718;DHT22;13574;52.040;5.692;2023-04-25T11:05:33;14.70;92.40
25718;DHT22;13574;52.040;5.692;2023-04-25T11:07:59;14.70;91.50
25718;DHT22;13574;52.040;5.692;2023-04-25T11:10:30;15.40;91.30
25718;DHT22;13574;52.040;5.692;2023-04-25T11:12:57;15.40;92.00
25718;DHT22;13574;52.040;5.692;2023-04-25T11:15:23;15.60;91.20
25718;DHT22;13574;52.040;5.692;2023-04-25T11:17:51;15.90;90.60
25718;DHT22;13574;52.040;5.692;2023-04-25T11:20:17;14.60;90.70
25718;DHT22;13574;52.040;5.692;2023-04-25T11:22:46;15.40;91.40
25718;DHT22;13574;52.040;5.692;2023-04-25T11:25:14;15.90;90.90
25718;DHT22;13574;52.040;5.692;2023-04-25T11:27:53;15.70;90.30
25718;DHT22;13574;52.040;5.692;2023-04-25T11:30:20;15.60;90.20
25718;DHT22;13574;52.040;5.692;2023-04-25T11:32:46;16.10;91.00
25718;DHT22;13574;52.040;5.692;2023-04-25T11:35:13;15.60;90.30
25718;DHT22;13574;52.040;5.692;2023-04-25T11:37:39;16.40;89.40
25718;DHT22;13574;52.040;5.692;2023-04-25T11:40:06;16.80;89.10
25718;DHT22;13574;52.040;5.692;2023-04-25T11:42:33;17.50;87.80
25718;DHT22;13574;52.040;5.692;2023-04-25T11:44:59;17.80;86.40
25718;DHT22;13574;52.040;5.692;2023-04-25T11:47:32;17.50;85.90
25718;DHT22;13574;52.040;5.692;2023-04-25T11:50:02;16.70;87.00
25718;DHT22;13574;52.040;5.692;2023-04-25T11:52:43;15.40;91.80
25718;DHT22;13574;52.040;5.692;2023-04-25T11:55:17;14.90;92.20
25718;DHT22;13574;52.040;5.692;2023-04-25T11:57:45;14.10;93.50
25718;DHT22;13574;52.040;5.692;2023-04-25T12:00:13;13.10;95.70
25718;DHT22;13574;52.040;5.692;2023-04-25T12:02:54;11.80;96.20
25718;DHT22;13574;52.040;5.692;2023-04-25T12:05:24;11.90;97.60
25718;DHT22;13574;52.040;5.692;2023-04-25T12:07:50;11.70;97.60
25718;DHT22;13574;52.040;5.692;2023-04-25T12:10:18;12.20;97.60
25718;DHT22;13574;52.040;5.692;2023-04-25T12:12:47;12.00;97.80
25718;DHT22;13574;52.040;5.692;2023-04-25T12:15:16;12.10;97.60
25718;DHT22;13574;52.040;5.692;2023-04-25T12:17:45;12.20;97.40
25718;DHT22;13574;52.040;5.692;2023-04-25T12:20:17;12.70;97.10
25718;DHT22;13574;52.040;5.692;2023-04-25T12:22:45;12.60;96.10
25718;DHT22;13574;52.040;5.692;2023-04-25T12:25:13;12.90;95.80
25718;DHT22;13574;52.040;5.692;2023-04-25T12:27:39;12.40;94.40
25718;DHT22;13574;52.040;5.692;2023-04-25T12:30:08;12.90;94.70
25718;DHT22;13574;52.040;5.692;2023-04-25T12:32:34;13.00;93.80
25718;DHT22;13574;52.040;5.692;2023-04-25T12:34:59;13.50;95.80
25718;DHT22;13574;52.040;5.692;2023-04-25T12:37:25;13.50;93.70
25718;DHT22;13574;52.040;5.692;2023-04-25T12:39:51;13.90;93.10
25718;DHT22;13574;52.040;5.692;2023-04-25T12:42:17;14.20;92.40
25718;DHT22;13574;52.040;5.692;2023-04-25T12:44:42;14.40;92.90
25718;DHT22;13574;52.040;5.692;2023-04-25T12:47:08;14.90;92.50
25718;DHT22;13574;52.040;5.692;2023-04-25T12:49:34;14.90;93.20
25718;DHT22;13574;52.040;5.692;2023-04-25T12:52:00;15.00;93.60
25718;DHT22;13574;52.040;5.692;2023-04-25T12:54:25;14.70;93.30
25718;DHT22;13574;52.040;5.692;2023-04-25T12:56:51;14.80;93.70
25718;DHT22;13574;52.040;5.692;2023-04-25T12:59:19;14.70;95.30
25718;DHT22;13574;52.040;5.692;2023-04-25T13:01:45;14.50;95.40
25718;DHT22;13574;52.040;5.692;2023-04-25T13:04:11;14.20;96.30
25718;DHT22;13574;52.040;5.692;2023-04-25T13:06:37;13.70;95.30
25718;DHT22;13574;52.040;5.692;2023-04-25T13:09:02;13.20;96.90
25718;DHT22;13574;52.040;5.692;2023-04-25T13:11:28;13.70;96.20
25718;DHT22;13574;52.040;5.692;2023-04-25T13:13:55;14.40;95.80
25718;DHT22;13574;52.040;5.692;2023-04-25T13:16:21;14.80;95.50
25718;DHT22;13574;52.040;5.692;2023-04-25T13:18:46;15.00;95.00
25718;DHT22;13574;52.040;5.692;2023-04-25T13:21:12;14.70;93.10
25718;DHT22;13574;52.040;5.692;2023-04-25T13:23:38;14.50;93.50
25718;DHT22;13574;52.040;5.692;2023-04-25T13:26:04;14.20;93.50
25718;DHT22;13574;52.040;5.692;2023-04-25T13:28:30;14.30;92.80
25718;DHT22;13574;52.040;5.692;2023-04-25T13:30:55;14.80;91.70
25718;DHT22;13574;52.040;5.692;2023-04-25T13:33:21;15.00;91.70
25718;DHT22;13574;52.040;5.692;2023-04-25T13:35:49;15.00;90.70
25718;DHT22;13574;52.040;5.692;2023-04-25T13:38:23;14.90;90.10
25718;DHT22;13574;52.040;5.692;2023-04-25T13:40:50;14.60;91.40
25718;DHT22;13574;52.040;5.692;2023-04-25T13:43:18;14.90;90.30
25718;DHT22;13574;52.040;5.692;2023-04-25T13:45:44;14.60;90.10
25718;DHT22;13574;52.040;5.692;2023-04-25T13:48:10;14.00;89.50
25718;DHT22;13574;52.040;5.692;2023-04-25T13:50:35;14.00;90.40
25718;DHT22;13574;52.040;5.692;2023-04-25T13:53:01;14.00;91.00
25718;DHT22;13574;52.040;5.692;2023-04-25T13:55:27;14.20;93.10
25718;DHT22;13574;52.040;5.692;2023-04-25T13:57:53;13.50;93.50
25718;DHT22;13574;52.040;5.692;2023-04-25T14:00:18;13.20;94.60
25718;DHT22;13574;52.040;5.692;2023-04-25T14:02:45;12.90;94.00
25718;DHT22;13574;52.040;5.692;2023-04-25T14:05:11;12.30;94.10
25718;DHT22;13574;52.040;5.692;2023-04-25T14:07:36;12.70;95.10
25718;DHT22;13574;52.040;5.692;2023-04-25T14:10:03;13.10;94.30
25718;DHT22;13574;52.040;5.692;2023-04-25T14:12:30;12.60;93.40
25718;DHT22;13574;52.040;5.692;2023-04-25T14:14:56;12.90;94.20
25718;DHT22;13574;52.040;5.692;2023-04-25T14:17:22;13.50;93.40
25718;DHT22;13574;52.040;5.692;2023-04-25T14:19:49;14.00;91.60
25718;DHT22;13574;52.040;5.692;2023-04-25T14:22:15;13.90;91.40
25718;DHT22;13574;52.040;5.692;2023-04-25T14:24:41;13.20;91.70
25718;DHT22;13574;52.040;5.692;2023-04-25T14:27:07;13.00;91.40
25718;DHT22;13574;52.040;5.692;2023-04-25T14:29:33;13.20;92.80
25718;DHT22;13574;52.040;5.692;2023-04-25T14:31:58;13.20;91.10
25718;DHT22;13574;52.040;5.692;2023-04-25T14:34:27;13.30;90.90
25718;DHT22;13574;52.040;5.692;2023-04-25T14:36:53;13.40;91.10
25718;DHT22;13574;52.040;5.692;2023-04-25T14:39:19;13.10;92.00
25718;DHT22;13574;52.040;5.692;2023-04-25T14:41:45;12.90;92.90
25718;DHT22;13574;52.040;5.692;2023-04-25T14:44:11;13.50;92.60
25718;DHT22;13574;52.040;5.692;2023-04-25T14:46:36;14.00;92.30
25718;DHT22;13574;52.040;5.692;2023-04-25T14:49:03;13.70;90.80
25718;DHT22;13574;52.040;5.692;2023-04-25T14:51:28;13.70;91.20
25718;DHT22;13574;52.040;5.692;2023-04-25T14:53:55;13.90;91.60
25718;DHT22;13574;52.040;5.692;2023-04-25T14:56:21;13.60;90.80
25718;DHT22;13574;52.040;5.692;2023-04-25T14:58:46;13.60;91.80
25718;DHT22;13574;52.040;5.692;2023-04-25T15:01:12;13.60;91.70
25718;DHT22;13574;52.040;5.692;2023-04-25T15:03:41;13.40;91.20
25718;DHT22;13574;52.040;5.692;2023-04-25T15:06:06;12.60;91.60
25718;DHT22;13574;52.040;5.692;2023-04-25T15:08:33;12.40;92.90
25718;DHT22;13574;52.040;5.692;2023-04-25T15:10:59;12.60;94.60
25718;DHT22;13574;52.040;5.692;2023-04-25T15:13:25;13.00;95.00
25718;DHT22;13574;52.040;5.692;2023-04-25T15:15:51;13.30;93.80
25718;DHT22;13574;52.040;5.692;2023-04-25T15:18:20;13.90;93.70
25718;DHT22;13574;52.040;5.692;2023-04-25T15:20:56;14.00;92.90
25718;DHT22;13574;52.040;5.692;2023-04-25T15:23:22;13.50;93.90
25718;DHT22;13574;52.040;5.692;2023-04-25T15:25:50;13.30;94.60
25718;DHT22;13574;52.040;5.692;2023-04-25T15:28:17;13.70;93.60
25718;DHT22;13574;52.040;5.692;2023-04-25T15:30:43;13.90;92.90